createdAt,value
2023-02-25T00:00:10.904Z,7.16
2023-02-25T00:03:19.677Z,7.15
2023-02-25T00:06:26.761Z,7.13
2023-02-25T00:09:33.185Z,7.13
2023-02-25T00:12:39.465Z,7.15
2023-02-25T00:15:43.966Z,7.17
2023-02-25T00:18:54.186Z,7.18
2023-02-25T00:22:00.786Z,7.17
2023-02-25T00:25:09.222Z,7.14
2023-02-25T00:28:16.202Z,7.04
2023-02-25T00:31:24.687Z,6.99
2023-02-25T00:34:31.114Z,6.98
2023-02-25T00:37:36.575Z,6.98
2023-02-25T00:40:43.114Z,6.97
2023-02-25T00:43:52.473Z,6.90
2023-02-25T00:46:58.701Z,6.87
2023-02-25T00:50:03.567Z,6.87
2023-02-25T00:53:09.813Z,6.88
2023-02-25T00:56:18.068Z,6.90
2023-02-25T00:59:24.320Z,6.92
2023-02-25T01:02:30.635Z,6.95
2023-02-25T01:05:35.218Z,6.99
2023-02-25T01:08:41.854Z,7.04
2023-02-25T01:11:49.917Z,7.02
2023-02-25T01:14:58.220Z,6.95
2023-02-25T01:18:04.469Z,6.90
2023-02-25T01:21:17.717Z,6.87
2023-02-25T01:24:26.001Z,6.77
2023-02-25T01:27:32.053Z,6.66
2023-02-25T01:30:40.515Z,6.62
2023-02-25T01:33:46.739Z,6.62
2023-02-25T01:36:53.608Z,6.62
2023-02-25T01:39:59.901Z,6.65
2023-02-25T01:43:07.809Z,6.67
2023-02-25T01:46:14.099Z,6.69
2023-02-25T01:49:20.294Z,6.71
2023-02-25T01:52:27.799Z,6.71
2023-02-25T01:55:34.486Z,6.73
2023-02-25T01:58:41.718Z,6.75
2023-02-25T02:01:47.882Z,6.75
2023-02-25T02:04:55.578Z,6.74
2023-02-25T02:08:01.745Z,6.73
2023-02-25T02:11:08.105Z,6.70
2023-02-25T02:14:17.382Z,6.63
2023-02-25T02:17:31.059Z,6.56
2023-02-25T02:20:52.902Z,6.44
2023-02-25T02:24:22.101Z,6.29
2023-02-25T02:27:34.025Z,6.15
2023-02-25T02:30:47.848Z,6.06
2023-02-25T02:34:00.041Z,5.97
2023-02-25T02:37:19.726Z,5.90
2023-02-25T02:40:37.678Z,5.85
2023-02-25T02:43:49.964Z,5.82
2023-02-25T02:47:01.285Z,5.79
2023-02-25T02:50:11.337Z,5.76
2023-02-25T02:53:23.325Z,5.75
2023-02-25T02:56:34.298Z,5.76
2023-02-25T02:59:44.544Z,5.75
2023-02-25T03:02:57.832Z,5.73
2023-02-25T03:06:04.746Z,5.73
2023-02-25T03:09:14.293Z,5.72
2023-02-25T03:12:20.763Z,5.72
2023-02-25T03:15:30.744Z,5.72
2023-02-25T03:18:42.838Z,5.75
2023-02-25T03:21:54.844Z,5.80
2023-02-25T03:25:07.420Z,5.81
2023-02-25T03:28:28.096Z,5.85
2023-02-25T03:31:40.125Z,5.86
2023-02-25T03:34:50.106Z,5.85
2023-02-25T03:38:02.937Z,5.84
2023-02-25T03:41:10.872Z,5.83
2023-02-25T03:44:20.819Z,5.77
2023-02-25T03:47:29.379Z,5.75
2023-02-25T03:50:42.664Z,5.77
2023-02-25T03:53:50.233Z,5.77
2023-02-25T03:56:57.006Z,5.77
2023-02-25T04:00:10.245Z,5.78
2023-02-25T04:03:16.478Z,5.78
2023-02-25T04:06:25.040Z,5.77
2023-02-25T04:09:31.648Z,5.75
2023-02-25T04:12:36.249Z,5.74
2023-02-25T04:15:43.259Z,5.71
2023-02-25T04:18:49.516Z,5.68
2023-02-25T04:21:55.660Z,5.66
2023-02-25T04:25:01.943Z,5.66
2023-02-25T04:28:06.756Z,5.68
2023-02-25T04:31:13.151Z,5.67
2023-02-25T04:34:17.716Z,5.56
2023-02-25T04:37:23.982Z,5.40
2023-02-25T04:40:30.722Z,5.29
2023-02-25T04:43:36.958Z,5.21
2023-02-25T04:46:44.268Z,5.16
2023-02-25T04:49:50.458Z,5.13
2023-02-25T04:52:58.644Z,5.06
2023-02-25T04:56:07.393Z,4.91
2023-02-25T04:59:15.130Z,4.77
2023-02-25T05:02:21.414Z,4.65
2023-02-25T05:05:26.030Z,4.55
2023-02-25T05:08:33.138Z,4.44
2023-02-25T05:11:39.349Z,4.35
2023-02-25T05:14:45.837Z,4.26
2023-02-25T05:17:52.404Z,4.19
2023-02-25T05:21:01.152Z,4.15
2023-02-25T05:24:08.546Z,4.11
2023-02-25T05:27:15.270Z,4.02
2023-02-25T05:30:21.942Z,3.96
2023-02-25T05:33:28.333Z,3.91
2023-02-25T05:36:32.864Z,3.88
2023-02-25T05:39:39.611Z,3.84
2023-02-25T05:42:49.554Z,3.83
2023-02-25T05:46:00.125Z,3.85
2023-02-25T05:49:06.661Z,3.86
2023-02-25T05:52:14.747Z,3.86
2023-02-25T05:55:21.444Z,3.87
2023-02-25T05:58:27.790Z,3.87
2023-02-25T06:01:32.311Z,3.85
2023-02-25T06:04:38.592Z,3.83
2023-02-25T06:07:43.238Z,3.83
2023-02-25T06:10:49.481Z,3.79
2023-02-25T06:13:56.557Z,3.79
2023-02-25T06:17:02.909Z,3.81
2023-02-25T06:20:09.241Z,3.78
2023-02-25T06:23:15.462Z,3.72
2023-02-25T06:26:22.386Z,3.66
2023-02-25T06:29:28.771Z,3.59
2023-02-25T06:32:35.155Z,3.54
2023-02-25T06:35:41.429Z,3.54
2023-02-25T06:38:48.225Z,3.53
2023-02-25T06:41:54.534Z,3.51
2023-02-25T06:44:59.005Z,3.49
2023-02-25T06:48:05.938Z,3.45
2023-02-25T06:51:12.971Z,3.40
2023-02-25T06:54:19.416Z,3.40
2023-02-25T06:57:25.657Z,3.41
2023-02-25T07:00:31.713Z,3.44
2023-02-25T07:03:38.027Z,3.45
2023-02-25T07:06:42.608Z,3.41
2023-02-25T07:09:48.932Z,3.35
2023-02-25T07:12:54.406Z,3.34
2023-02-25T07:16:00.755Z,3.38
2023-02-25T07:19:05.408Z,3.34
2023-02-25T07:22:15.616Z,3.28
2023-02-25T07:25:22.264Z,3.30
2023-02-25T07:28:28.532Z,3.35
2023-02-25T07:31:35.323Z,3.37
2023-02-25T07:34:41.645Z,3.39
2023-02-25T07:37:47.948Z,3.35
2023-02-25T07:40:52.459Z,3.30
2023-02-25T07:43:59.513Z,3.25
2023-02-25T07:47:05.780Z,3.21
2023-02-25T07:50:13.476Z,3.23
2023-02-25T07:53:22.018Z,3.28
2023-02-25T07:56:30.568Z,3.34
2023-02-25T07:59:36.626Z,3.41
2023-02-25T08:02:43.499Z,3.50
2023-02-25T08:05:54.327Z,3.56
2023-02-25T08:09:00.573Z,3.57
2023-02-25T08:12:07.303Z,3.59
2023-02-25T08:15:14.472Z,3.65
2023-02-25T08:18:20.758Z,3.73
2023-02-25T08:21:25.717Z,3.80
2023-02-25T08:24:32.424Z,3.94
2023-02-25T08:27:39.452Z,4.09
2023-02-25T08:30:46.565Z,4.24
2023-02-25T08:33:53.891Z,4.38
2023-02-25T08:37:00.447Z,4.47
2023-02-25T08:40:10.398Z,4.54
2023-02-25T08:43:16.677Z,4.59
2023-02-25T08:46:23.259Z,4.63
2023-02-25T08:49:29.766Z,4.70
2023-02-25T08:52:36.107Z,4.76
2023-02-25T08:55:41.093Z,4.80
2023-02-25T08:58:47.279Z,4.84
2023-02-25T09:01:54.380Z,4.87
2023-02-25T09:05:00.686Z,4.92
2023-02-25T09:08:06.120Z,4.99
2023-02-25T09:11:12.424Z,5.02
2023-02-25T09:14:16.893Z,5.06
2023-02-25T09:17:23.162Z,5.16
2023-02-25T09:20:29.414Z,5.28
2023-02-25T09:23:34.287Z,5.40
2023-02-25T09:26:40.440Z,5.52
2023-02-25T09:29:46.662Z,5.68
2023-02-25T09:32:53.131Z,5.84
2023-02-25T09:36:04.778Z,5.98
2023-02-25T09:39:10.959Z,6.01
2023-02-25T09:42:22.399Z,5.98
2023-02-25T09:45:29.425Z,5.92
2023-02-25T09:48:41.243Z,5.87
2023-02-25T09:51:49.889Z,5.87
2023-02-25T09:55:00.822Z,5.87
2023-02-25T09:58:16.072Z,5.88
2023-02-25T10:01:34.454Z,5.91
2023-02-25T10:04:49.099Z,5.95
2023-02-25T10:08:08.991Z,5.99
2023-02-25T10:11:20.603Z,6.01
2023-02-25T10:14:55.186Z,5.96
2023-02-25T10:18:16.639Z,5.88
2023-02-25T10:21:31.711Z,5.84
2023-02-25T10:24:44.180Z,5.84
2023-02-25T10:27:56.530Z,5.77
2023-02-25T10:31:08.091Z,5.70
2023-02-25T10:34:26.110Z,5.63
2023-02-25T10:37:38.221Z,5.60
2023-02-25T10:40:44.706Z,5.64
2023-02-25T10:43:50.637Z,5.71
2023-02-25T10:46:56.968Z,5.80
2023-02-25T10:50:25.832Z,5.92
2023-02-25T10:53:39.276Z,6.03
2023-02-25T10:56:49.793Z,6.12
2023-02-25T11:00:06.572Z,6.20
2023-02-25T11:03:25.578Z,6.26
2023-02-25T11:06:35.524Z,6.25
2023-02-25T11:09:41.657Z,6.23
2023-02-25T11:12:49.556Z,6.33
2023-02-25T11:15:55.871Z,6.54
2023-02-25T11:19:02.677Z,6.78
2023-02-25T11:22:17.468Z,6.97
2023-02-25T11:25:33.775Z,7.10
2023-02-25T11:28:45.249Z,7.23
2023-02-25T11:31:55.845Z,7.32
2023-02-25T11:35:10.122Z,7.46
2023-02-25T11:38:28.674Z,7.50
2023-02-25T11:41:34.923Z,7.60
2023-02-25T11:44:47.354Z,7.61
2023-02-25T11:47:54.587Z,7.46
2023-02-25T11:51:09.727Z,7.26
2023-02-25T11:54:27.349Z,7.06
2023-02-25T11:57:43.861Z,6.86
2023-02-25T12:00:58.896Z,6.70
2023-02-25T12:04:27.256Z,6.65
2023-02-25T12:08:13.280Z,6.60
2023-02-25T12:11:57.581Z,6.54
2023-02-25T12:15:30.413Z,6.51
2023-02-25T12:19:11.120Z,6.41
2023-02-25T12:23:01.971Z,6.29
2023-02-25T12:26:15.220Z,6.20
2023-02-25T12:29:40.743Z,6.09
2023-02-25T12:32:58.223Z,5.89
2023-02-25T12:36:19.912Z,5.71
2023-02-25T12:39:48.808Z,5.53
2023-02-25T12:43:09.482Z,5.39
2023-02-25T12:46:28.607Z,5.14
2023-02-25T12:49:56.760Z,4.90
2023-02-25T12:53:21.218Z,4.78
2023-02-25T12:56:54.440Z,4.74
2023-02-25T13:00:17.496Z,4.72
2023-02-25T13:03:43.200Z,4.76
2023-02-25T13:07:17.117Z,4.82
2023-02-25T13:10:49.411Z,4.88
2023-02-25T13:14:10.026Z,4.95
2023-02-25T13:17:44.435Z,5.02
2023-02-25T13:21:34.032Z,5.06
2023-02-25T13:24:51.135Z,5.06
2023-02-25T13:28:37.576Z,5.10
2023-02-25T13:31:52.718Z,5.18
2023-02-25T13:35:17.427Z,5.23
2023-02-25T13:38:43.046Z,5.24
2023-02-25T13:42:06.755Z,5.29
2023-02-25T13:45:48.247Z,5.34
2023-02-25T13:49:20.637Z,5.30
2023-02-25T13:52:36.478Z,5.06
2023-02-25T13:55:54.680Z,4.79
2023-02-25T13:59:16.649Z,4.57
2023-02-25T14:02:51.090Z,4.42
2023-02-25T14:06:19.504Z,4.26
2023-02-25T14:09:44.253Z,4.13
2023-02-25T14:13:06.030Z,4.03
2023-02-25T14:16:27.979Z,3.92
2023-02-25T14:19:45.151Z,3.80
2023-02-25T14:22:56.977Z,3.71
2023-02-25T14:26:24.279Z,3.64
2023-02-25T14:29:40.180Z,3.58
2023-02-25T14:33:06.573Z,3.65
2023-02-25T14:36:44.493Z,3.83
2023-02-25T14:40:08.925Z,3.96
2023-02-25T14:43:36.841Z,3.99
2023-02-25T14:46:49.917Z,3.99
2023-02-25T14:50:01.857Z,4.00
2023-02-25T14:53:56.278Z,3.98
2023-02-25T14:57:22.996Z,3.93
2023-02-25T15:00:55.141Z,3.87
2023-02-25T15:04:32.122Z,3.84
2023-02-25T15:07:58.778Z,3.81
2023-02-25T15:11:34.596Z,3.83
2023-02-25T15:15:21.345Z,3.87
2023-02-25T15:19:19.765Z,3.85
2023-02-25T15:22:28.040Z,3.80
2023-02-25T15:25:45.647Z,3.77
2023-02-25T15:28:53.611Z,3.70
2023-02-25T15:32:23.272Z,3.65
2023-02-25T15:35:59.801Z,3.59
2023-02-25T15:39:06.544Z,3.57
2023-02-25T15:42:14.451Z,3.53
2023-02-25T15:45:44.569Z,3.52
2023-02-25T15:49:07.350Z,3.48
2023-02-25T15:52:14.306Z,3.42
2023-02-25T15:55:32.989Z,3.39
2023-02-25T15:58:57.977Z,3.35
2023-02-25T16:02:04.282Z,3.30
2023-02-25T16:05:17.569Z,3.27
2023-02-25T16:08:28.970Z,3.22
2023-02-25T16:11:39.422Z,3.13
2023-02-25T16:14:47.609Z,3.06
2023-02-25T16:17:57.641Z,3.04
2023-02-25T16:21:07.716Z,3.04
2023-02-25T16:24:15.078Z,3.00
2023-02-25T16:27:41.599Z,2.92
2023-02-25T16:30:55.971Z,2.88
2023-02-25T16:34:07.198Z,2.85
2023-02-25T16:37:21.476Z,2.83
2023-02-25T16:40:30.331Z,2.81
2023-02-25T16:43:41.967Z,2.79
2023-02-25T16:46:53.562Z,2.78
2023-02-25T16:50:01.818Z,2.80
2023-02-25T16:53:17.232Z,2.84
2023-02-25T16:56:27.864Z,2.85
2023-02-25T16:59:36.489Z,2.87
2023-02-25T17:02:47.411Z,2.89
2023-02-25T17:06:08.940Z,2.89
2023-02-25T17:09:27.747Z,2.86
2023-02-25T17:12:38.738Z,2.82
2023-02-25T17:15:46.287Z,2.83
2023-02-25T17:18:56.865Z,2.84
2023-02-25T17:22:05.336Z,2.85
2023-02-25T17:25:16.307Z,2.87
2023-02-25T17:28:26.099Z,2.88
2023-02-25T17:31:32.954Z,2.87
2023-02-25T17:34:39.525Z,2.83
2023-02-25T17:37:45.757Z,2.79
2023-02-25T17:40:54.498Z,2.75
2023-02-25T17:44:00.804Z,2.72
2023-02-25T17:47:06.193Z,2.70
2023-02-25T17:50:27.904Z,2.68
2023-02-25T17:53:49.577Z,2.66
2023-02-25T17:57:01.141Z,2.63
2023-02-25T18:00:21.449Z,2.59
2023-02-25T18:03:30.795Z,2.57
2023-02-25T18:06:44.994Z,2.53
2023-02-25T18:09:51.990Z,2.50
2023-02-25T18:12:58.478Z,2.48
2023-02-25T18:16:37.249Z,2.46
2023-02-25T18:19:46.206Z,2.46
2023-02-25T18:22:53.637Z,2.46
2023-02-25T18:29:32.962Z,2.44
2023-02-25T18:32:39.512Z,2.38
2023-02-25T18:35:48.213Z,2.38
2023-02-25T18:38:56.295Z,2.38
2023-02-25T18:42:02.680Z,2.39
2023-02-25T18:45:14.302Z,2.41
2023-02-25T18:48:20.325Z,2.43
2023-02-25T18:51:26.474Z,2.46
2023-02-25T18:54:32.736Z,2.47
2023-02-25T18:57:39.126Z,2.47
2023-02-25T19:00:47.211Z,2.49
2023-02-25T19:03:54.149Z,2.51
2023-02-25T19:07:00.360Z,2.54
2023-02-25T19:10:07.889Z,2.55
2023-02-25T19:13:19.929Z,2.57
2023-02-25T19:16:26.646Z,2.58
2023-02-25T19:19:33.189Z,2.59
2023-02-25T19:22:44.668Z,2.60
2023-02-25T19:25:56.906Z,2.60
2023-02-25T19:29:03.224Z,2.60
2023-02-25T19:32:07.909Z,2.58
2023-02-25T19:35:14.414Z,2.56
2023-02-25T19:38:21.858Z,2.57
2023-02-25T19:41:28.103Z,2.57
2023-02-25T19:44:34.661Z,2.53
2023-02-25T19:47:41.068Z,2.52
2023-02-25T19:50:45.562Z,2.52
2023-02-25T19:53:51.751Z,2.52
2023-02-25T19:56:58.162Z,2.51
2023-02-25T20:00:05.893Z,2.47
2023-02-25T20:03:13.472Z,2.45
2023-02-25T20:06:23.365Z,2.45
2023-02-25T20:09:29.943Z,2.46
2023-02-25T20:12:36.196Z,2.45
2023-02-25T20:15:42.754Z,2.43
2023-02-25T20:18:51.565Z,2.42
2023-02-25T20:21:58.553Z,2.45
2023-02-25T20:25:05.532Z,2.49
2023-02-25T20:28:12.249Z,2.48
2023-02-25T20:31:19.662Z,2.49
2023-02-25T20:34:28.182Z,2.50
2023-02-25T20:37:40.621Z,2.52
2023-02-25T20:40:47.017Z,2.50
2023-02-25T20:43:51.637Z,2.48
2023-02-25T20:46:58.393Z,2.49
2023-02-25T20:50:06.738Z,2.48
2023-02-25T20:53:13.538Z,2.47
2023-02-25T20:56:24.941Z,2.44
2023-02-25T20:59:31.160Z,2.39
2023-02-25T21:02:37.590Z,2.33
2023-02-25T21:05:43.627Z,2.25
2023-02-25T21:08:49.923Z,2.22
2023-02-25T21:11:54.447Z,2.18
2023-02-25T21:15:00.973Z,2.13
2023-02-25T21:18:07.161Z,2.13
2023-02-25T21:21:15.030Z,2.11
2023-02-25T21:24:22.008Z,2.10
2023-02-25T21:27:29.085Z,2.05
2023-02-25T21:30:35.390Z,2.01
2023-02-25T21:33:40.610Z,2.03
2023-02-25T21:36:46.892Z,2.03
2023-02-25T21:39:51.426Z,2.03
2023-02-25T21:42:58.181Z,2.04
2023-02-25T21:46:05.728Z,2.05
2023-02-25T21:49:11.917Z,2.05
2023-02-25T21:52:18.735Z,2.06
2023-02-25T21:55:25.101Z,2.04
2023-02-25T21:58:29.628Z,2.02
2023-02-25T22:01:38.126Z,1.98
2023-02-25T22:04:44.469Z,1.95
2023-02-25T22:07:50.910Z,1.95
2023-02-25T22:10:57.152Z,1.93
2023-02-25T22:14:05.661Z,1.93
2023-02-25T22:17:12.477Z,1.94
2023-02-25T22:20:19.498Z,1.94
2023-02-25T22:23:25.729Z,1.94
2023-02-25T22:26:33.573Z,1.90
2023-02-25T22:29:39.841Z,1.88
2023-02-25T22:32:46.008Z,1.90
2023-02-25T22:35:58.584Z,1.93
2023-02-25T22:39:07.502Z,1.92
2023-02-25T22:42:13.795Z,1.92
2023-02-25T22:45:18.462Z,1.89
2023-02-25T22:48:24.625Z,1.89
2023-02-25T22:51:32.905Z,1.88
2023-02-25T22:54:39.385Z,1.86
2023-02-25T22:57:45.570Z,1.85
2023-02-25T23:00:51.701Z,1.83
2023-02-25T23:03:58.819Z,1.83
2023-02-25T23:07:05.118Z,1.82
2023-02-25T23:10:13.094Z,1.84
2023-02-25T23:13:19.890Z,1.87
2023-02-25T23:16:30.119Z,1.90
2023-02-25T23:19:36.412Z,1.95
2023-02-25T23:22:42.732Z,1.98
2023-02-25T23:25:51.504Z,2.00
2023-02-25T23:28:59.944Z,1.97
2023-02-25T23:32:06.452Z,1.98
2023-02-25T23:35:13.773Z,1.94
2023-02-25T23:38:20.061Z,1.90
2023-02-25T23:41:27.478Z,1.87
2023-02-25T23:44:36.894Z,1.85
2023-02-25T23:47:43.985Z,1.84
2023-02-25T23:50:50.255Z,1.82
2023-02-25T23:53:57.877Z,1.82
2023-02-25T23:57:04.129Z,1.84
